Sunday, December 17, 2017, 2:32 PM EST
Back to Local

KHVN, Tweed-new Haven Airport

Location: East Haven, CT, United States Lat: 41.267
Local Time: 2:32 PM EST (19:32 GMT) Lon: -72.883
Time Zone: US/Eastern Elev: 13 ft

Show me the last for .
Show Decoded

2017-12-17 13:53 METAR KHVN 171853Z 31004KT 10SM BKN060 01/M10 A3024 RMK AO2 SLP238 T00061100 =
2017-12-17 12:53 METAR KHVN 171753Z 27004KT 10SM BKN060 00/M09 A3026 RMK AO2 SLP246 T00001094
                 10000 21078 58016 =
2017-12-17 11:53 METAR KHVN 171653Z 00000KT 10SM BKN080 00/M09 A3028 RMK AO2 SLP253 T00001089 =
2017-12-17 10:53 METAR KHVN 171553Z 15003KT 10SM BKN085 M01/M09 A3029 RMK AO2 SLP257 T10111089 =
2017-12-17 09:53 METAR KHVN 171453Z 00000KT 10SM BKN090 M02/M09 A3031 RMK AO2 SLP262 T10221094
                 53010 =
2017-12-17 08:53 METAR KHVN 171353Z 36003KT 10SM CLR M04/M09 A3029 RMK AO2 SLP258 T10441089 =
2017-12-17 07:53 METAR KHVN 171253Z 01006KT 10SM CLR M07/M10 A3029 RMK AO2 SLP255 T10671100 =
2017-12-17 06:53 METAR KHVN 171153Z 00000KT 10SM CLR M08/M11 A3028 RMK AO2 SLP252 T10781111 11050
                 21089 51004 =
2017-12-17 05:53 METAR KHVN 171053Z AUTO 02004KT 10SM CLR M07/M11 A3027 RMK AO2 SLP251 T10721106
                 =
2017-12-17 04:53 METAR KHVN 170953Z AUTO 02004KT 10SM CLR M08/M11 A3028 RMK AO2 SLP253 T10831111
                 =
2017-12-17 03:53 METAR KHVN 170853Z AUTO 01003KT 10SM CLR M09/M11 A3026 RMK AO2 SLP248 T10891111
                 53015 =
2017-12-17 02:53 METAR KHVN 170753Z AUTO 33004KT 10SM BKN055 M07/M12 A3025 RMK AO2 SLP243
                 T10721117 =
2017-12-17 01:53 METAR KHVN 170653Z AUTO 36003KT 10SM CLR M06/M11 A3023 RMK AO2 SLP237 T10611111
                 =
2017-12-17 00:53 METAR KHVN 170553Z AUTO 00000KT 10SM CLR M06/M11 A3022 RMK AO2 SLP233 T10561106
                 10022 21056 51015 =
2017-12-16 23:53 METAR KHVN 170453Z AUTO 01004KT 10SM CLR M04/M10 A3021 RMK AO2 SLP229 T10391100
                 400221067 =
2017-12-16 22:53 METAR KHVN 170353Z AUTO 35005KT 10SM CLR M02/M09 A3020 RMK AO2 SLP227 T10171089
                 =
2017-12-16 21:53 METAR KHVN 170253Z 36009KT 10SM OVC034 M01/M07 A3018 RMK AO2 SLP218 T10061072
                 51028 =
2017-12-16 20:53 METAR KHVN 170153Z 35008KT 10SM BKN030 OVC070 00/M06 A3015 RMK AO2 SLP211
                 T00001056 =
2017-12-16 19:53 METAR KHVN 170053Z 30006KT 10SM OVC070 02/M04 A3012 RMK AO2 SLP198 T00171044 =
2017-12-16 18:53 METAR KHVN 162353Z 28004KT 10SM OVC060 02/M05 A3009 RMK AO2 SLP189 T00221050
                 10022 20017 53037 =
2017-12-16 17:53 METAR KHVN 162253Z 27004KT 10SM FEW040 BKN049 OVC085 02/M05 A3005 RMK AO2 SLP176
                 T00221050 =
2017-12-16 16:53 METAR KHVN 162153Z VRB05KT 10SM OVC042 02/M05 A3002 RMK AO2 SLP165 T00221050 =
2017-12-16 15:53 METAR KHVN 162053Z VRB04KT 10SM OVC041 02/M06 A2998 RMK AO2 SLP153 T00221056
                 53007 =
2017-12-16 14:53 METAR KHVN 161953Z 25009G16KT 10SM SCT047 BKN065 02/M06 A2997 RMK AO2 SLP148
                 T00221061 =

Support USWX by starting your Amazon purchase here.